Goff, Kansas
Current Conditions -  °F | °C
As of 12:53 PM on Thursday 23 Oct 2014 (Local Time) from KFNB Reporting Station
Few Clouds Few Clouds  
Wind Chill: 70°   Ceiling: Unl
Heat Index: 70°   Visibility: 10mi
Dew Point: 58°   Wind: 5mph
Humidity: 65%   Direction: 260°W
Pressure: 30.06"   Gusts: NA
Location:  39.66°N, 95.93°W
Report Text: KFNB 231753Z AUTO 26004KT 10SM FEW023 21/14 A3006 RMK AO2 SLP175 T02110144 10211 20161 58001
Loading
Personal Weather Stations






























Interactive Weather Map
Tropical Storm Tracking
New forecast layout! Learn more

10-Day Weather Forecast

Advertisements
Track Severe Weather on mobile